Time;durP1;ratioP1;P1;durP2;ratioP2;P2;SDS_P1;SDS_P2;PMS_P1;PMS_P2;Temp;Humidity;BMP_temperature;BMP_pressure;BME280_temperature;BME280_humidity;BME280_pressure;Samples;Min_cycle;Max_cycle;Signal;HPM_P1;HPM_P2
2022/09/14 05:25:01;;;;;;;;;6.00;6.00;;;;;23.15;59.15;100101.41;5067088;27;45520;-78
2022/09/14 05:27:27;;;;;;;;;6.00;5.33;;;;;23.28;59.17;100092.69;5051686;27;45432;-79
2022/09/14 05:29:52;;;;;;;;;7.67;6.33;;;;;23.50;59.32;100100.13;5055601;27;46292;-78
2022/09/14 05:32:18;;;;;;;;;5.67;5.00;;;;;23.76;59.02;100102.41;5057395;28;45839;-79
2022/09/14 05:34:43;;;;;;;;;10.00;7.67;;;;;24.04;59.01;100099.03;5054926;28;46013;-79
2022/09/14 05:37:11;;;;;;;;;6.67;6.67;;;;;24.34;58.57;100098.19;5058658;28;47326;-76
2022/09/14 05:39:36;;;;;;;;;7.33;7.00;;;;;24.64;58.04;100097.31;5050453;28;45390;-77
2022/09/14 05:42:01;;;;;;;;;8.00;6.33;;;;;24.95;57.77;100109.75;5051747;28;46004;-76
2022/09/14 05:44:27;;;;;;;;;7.00;6.33;;;;;25.23;56.65;100108.97;5057672;28;46613;-77
2022/09/14 05:46:52;;;;;;;;;6.33;6.33;;;;;25.49;56.71;100097.50;5050660;28;48321;-77
2022/09/14 05:49:17;;;;;;;;;3.00;3.00;;;;;25.73;55.73;100108.97;5055607;28;45418;-77
2022/09/14 05:51:42;;;;;;;;;5.67;5.00;;;;;25.96;55.01;100097.00;5055144;28;45419;-77
2022/09/14 05:54:10;;;;;;;;;7.67;4.33;;;;;26.18;54.89;100088.72;5051189;28;45383;-77
2022/09/14 05:56:36;;;;;;;;;7.67;5.67;;;;;26.38;54.79;100091.56;5054087;28;46313;-77
2022/09/14 05:59:01;;;;;;;;;6.00;6.00;;;;;26.56;53.90;100084.69;5050824;28;45473;-77
2022/09/14 06:01:30;;;;;;;;;7.00;7.00;;;;;26.71;53.71;100079.09;5061750;27;47242;-80
2022/09/14 06:03:59;;;;;;;;;9.00;7.33;;;;;26.86;53.03;100072.63;5056470;28;47049;-78
2022/09/14 06:06:24;;;;;;;;;7.00;5.67;;;;;26.93;52.71;100077.06;5061972;28;45721;-77
2022/09/14 06:08:52;;;;;;;;;6.33;6.33;;;;;27.05;52.13;100079.19;5053663;27;45535;-77
2022/09/14 06:11:21;;;;;;;;;8.00;8.00;;;;;27.14;52.79;100083.34;5057642;28;45589;-74
2022/09/14 06:13:48;;;;;;;;;9.00;7.67;;;;;27.23;52.64;100075.81;5056705;28;45352;-75
2022/09/14 06:16:16;;;;;;;;;8.00;7.33;;;;;27.34;51.84;100088.81;5062592;27;45424;-75
2022/09/14 06:18:42;;;;;;;;;7.33;7.33;;;;;27.43;52.09;100097.59;5078555;27;45553;-76
2022/09/14 06:21:10;;;;;;;;;7.00;7.00;;;;;27.52;51.21;100100.97;5073859;27;45462;-76
2022/09/14 06:23:35;;;;;;;;;9.33;8.33;;;;;27.59;51.42;100081.88;5070019;28;45792;-76
2022/09/14 06:26:03;;;;;;;;;7.00;7.00;;;;;27.65;51.40;100088.38;5069517;27;45403;-76
2022/09/14 06:28:29;;;;;;;;;5.00;5.00;;;;;27.70;51.20;100088.56;5070157;28;45431;-78
2022/09/14 06:30:55;;;;;;;;;7.33;6.00;;;;;27.71;51.24;100093.00;5070510;28;45533;-75
2022/09/14 06:33:21;;;;;;;;;5.00;5.00;;;;;27.77;50.39;100096.75;5068845;27;45409;-79
2022/09/14 06:36:00;;;;;;;;;6.00;5.67;;;;;27.79;51.19;100100.09;5059790;28;45336;-79
2022/09/14 06:38:27;;;;;;;;;6.00;6.00;;;;;27.83;50.87;100110.38;5043786;28;45444;-77
2022/09/14 06:41:04;;;;;;;;;5.67;5.67;;;;;27.86;50.60;100118.13;5050677;28;45384;-75
2022/09/14 06:43:33;;;;;;;;;5.67;5.67;;;;;27.87;50.02;100116.22;5062305;28;45773;-74
2022/09/14 06:46:00;;;;;;;;;5.67;5.67;;;;;27.85;50.17;100126.53;5063208;28;45497;-74
2022/09/14 06:48:28;;;;;;;;;6.67;6.67;;;;;27.85;50.32;100124.63;5054418;28;45406;-75
2022/09/14 06:50:53;;;;;;;;;8.67;6.67;;;;;27.88;50.30;100117.91;5056618;28;45435;-77
2022/09/14 06:53:19;;;;;;;;;9.00;6.33;;;;;27.92;50.26;100121.06;5053817;28;45654;-75
2022/09/14 06:55:45;;;;;;;;;9.67;7.00;;;;;27.94;50.31;100124.38;5056593;28;45395;-77
2022/09/14 06:58:10;;;;;;;;;7.00;6.33;;;;;27.90;50.12;100123.16;5052378;28;45401;-76
2022/09/14 07:00:36;;;;;;;;;7.67;7.67;;;;;27.83;50.52;100115.81;5055116;28;45522;-75
2022/09/14 07:03:01;;;;;;;;;5.33;4.00;;;;;27.82;50.57;100118.75;5053180;28;45722;-76
2022/09/14 07:05:27;;;;;;;;;8.00;6.33;;;;;27.76;50.74;100109.56;5053553;28;45378;-75
2022/09/14 07:07:52;;;;;;;;;6.00;6.00;;;;;27.76;51.25;100104.09;5049937;28;45363;-76
2022/09/14 07:10:18;;;;;;;;;8.00;6.33;;;;;27.74;50.94;100107.03;5043887;28;45375;-76
2022/09/14 07:12:43;;;;;;;;;7.00;6.00;;;;;27.76;51.27;100112.28;5035587;28;45414;-77
2022/09/14 07:15:09;;;;;;;;;11.67;9.67;;;;;27.77;50.41;100108.50;5037622;28;45369;-77
2022/09/14 07:17:38;;;;;;;;;7.33;7.33;;;;;27.74;50.81;100107.03;5055060;28;45500;-88
2022/09/14 07:20:04;;;;;;;;;7.67;5.67;;;;;27.77;50.63;100107.66;5050173;28;45543;-83
2022/09/14 07:22:33;;;;;;;;;8.33;6.00;;;;;27.79;51.32;100120.00;5036342;28;45954;-78
2022/09/14 07:24:59;;;;;;;;;7.33;6.00;;;;;27.81;51.39;100117.94;5049861;28;45679;-79
2022/09/14 07:27:24;;;;;;;;;8.00;8.00;;;;;27.82;50.56;100118.75;5068290;28;45707;-77
2022/09/14 07:29:49;;;;;;;;;7.33;7.33;;;;;27.83;51.03;100117.72;5056549;28;45398;-77
2022/09/14 07:32:15;;;;;;;;;9.00;7.00;;;;;27.83;50.76;100120.44;5055599;28;45356;-77
2022/09/14 07:34:40;;;;;;;;;6.00;6.00;;;;;27.82;51.24;100127.78;5054597;28;45380;-81
2022/09/14 07:37:05;;;;;;;;;8.67;7.67;;;;;27.77;51.26;100149.41;5058820;28;50996;-79
2022/09/14 07:39:31;;;;;;;;;7.00;7.00;;;;;27.71;51.04;100163.88;5058754;28;45386;-82
2022/09/14 07:41:56;;;;;;;;;5.33;5.33;;;;;27.68;50.97;100158.84;5048943;28;45989;-80
2022/09/14 07:44:21;;;;;;;;;5.00;5.00;;;;;27.64;51.06;100158.44;5067132;28;45426;-79
2022/09/14 07:46:47;;;;;;;;;4.67;4.67;;;;;27.61;51.10;100167.88;5043082;28;48804;-76
2022/09/14 07:49:14;;;;;;;;;7.33;5.00;;;;;27.59;50.76;100174.53;5055706;28;45510;-77
2022/09/14 07:51:39;;;;;;;;;8.67;7.00;;;;;27.53;50.92;100172.63;5055405;28;47029;-77
2022/09/14 07:54:06;;;;;;;;;7.00;7.00;;;;;27.49;51.78;100175.81;5056997;28;45415;-74
2022/09/14 07:56:33;;;;;;;;;7.00;7.00;;;;;27.53;51.07;100172.63;5055713;27;45371;-74
2022/09/14 07:58:59;;;;;;;;;5.33;5.33;;;;;27.56;51.30;100181.25;5054623;28;45472;-75
2022/09/14 08:01:28;;;;;;;;;5.33;5.33;;;;;27.58;50.91;100190.06;5053046;28;46878;-75
2022/09/14 08:03:53;;;;;;;;;6.00;4.00;;;;;27.61;50.79;100189.66;5043028;28;45465;-75
2022/09/14 08:06:25;;;;;;;;;4.33;4.33;;;;;27.67;50.98;100198.88;5043324;28;45537;-73
2022/09/14 08:08:52;;;;;;;;;6.33;6.33;;;;;27.71;50.89;100219.22;5055612;28;45468;-74
2022/09/14 08:11:19;;;;;;;;;6.00;5.33;;;;;27.76;50.99;100218.59;5042235;28;46392;-74
2022/09/14 08:13:48;;;;;;;;;5.33;5.33;;;;;27.81;50.73;100218.81;5051867;28;45422;-74
2022/09/14 08:16:14;;;;;;;;;4.67;4.00;;;;;27.85;51.17;100211.91;5037233;28;45501;-74
2022/09/14 08:18:40;;;;;;;;;6.67;5.00;;;;;27.90;50.85;100211.25;5036902;28;45571;-74
2022/09/14 08:21:08;;;;;;;;;6.00;6.00;;;;;27.94;51.02;100215.22;5042295;28;46363;-74
2022/09/14 08:23:34;;;;;;;;;7.67;6.00;;;;;27.99;50.62;100206.41;5052983;28;45402;-74
2022/09/14 08:26:07;;;;;;;;;5.67;5.33;;;;;28.04;51.28;100201.19;5055067;28;45754;-74
2022/09/14 08:28:35;;;;;;;;;5.67;5.67;;;;;28.07;50.71;100206.19;5041598;28;45704;-75
2022/09/14 08:31:11;;;;;;;;;5.00;5.00;;;;;28.10;50.80;100207.66;5043332;28;46080;-75
2022/09/14 08:33:39;;;;;;;;;5.00;5.00;;;;;28.14;51.00;100208.91;5037661;28;45415;-74
2022/09/14 08:36:07;;;;;;;;;4.00;4.00;;;;;28.18;50.33;100209.31;5039601;28;45437;-76
2022/09/14 08:38:32;;;;;;;;;5.67;5.33;;;;;28.18;50.56;100210.16;5047960;28;45452;-76
2022/09/14 08:41:06;;;;;;;;;6.00;6.00;;;;;28.24;51.04;100216.66;5049111;28;46203;-76
2022/09/14 08:43:32;;;;;;;;;6.33;5.33;;;;;28.25;51.11;100221.91;5048645;28;45421;-76
2022/09/14 08:46:03;;;;;;;;;5.33;4.67;;;;;28.27;50.60;100221.72;5041469;28;45434;-76
2022/09/14 08:48:34;;;;;;;;;6.33;4.67;;;;;28.31;50.37;100230.34;5053238;28;45525;-76
2022/09/14 08:50:59;;;;;;;;;7.67;6.67;;;;;28.34;50.67;100222.56;5039325;28;45555;-75
2022/09/14 08:53:25;;;;;;;;;6.00;4.33;;;;;28.37;50.78;100234.94;5044866;28;45496;-75
2022/09/14 08:55:59;;;;;;;;;8.00;6.00;;;;;28.43;50.91;100239.53;5048954;28;45488;-75
2022/09/14 08:58:40;;;;;;;;;5.33;5.00;;;;;28.50;51.19;100225.84;5037844;28;45457;-73
2022/09/14 09:01:16;;;;;;;;;5.00;5.00;;;;;28.54;50.46;100227.09;5050632;28;46369;-74
2022/09/14 09:03:57;;;;;;;;;4.67;4.67;;;;;28.58;50.99;100233.81;5050929;28;47128;-74
2022/09/14 09:06:22;;;;;;;;;5.33;4.33;;;;;28.62;50.69;100243.25;5052203;28;45517;-75
2022/09/14 09:09:12;;;;;;;;;5.00;5.00;;;;;28.65;50.86;100237.34;5041777;28;45554;-75
2022/09/14 09:11:48;;;;;;;;;3.67;3.67;;;;;28.70;50.42;100235.88;5051569;28;45428;-74
2022/09/14 09:14:33;;;;;;;;;6.67;5.33;;;;;28.75;50.57;100239.63;5046999;28;45350;-75
2022/09/14 09:17:03;;;;;;;;;6.67;5.33;;;;;28.79;50.18;100248.22;5052379;28;45431;-75
2022/09/14 09:19:39;;;;;;;;;5.00;5.00;;;;;28.80;50.03;100241.69;5054867;28;45666;-75
2022/09/14 09:22:14;;;;;;;;;5.33;5.33;;;;;28.86;50.59;100245.47;5049380;28;45427;-75
2022/09/14 09:24:44;;;;;;;;;2.67;2.67;;;;;28.89;50.45;100247.81;5047349;28;45538;-76
2022/09/14 09:27:14;;;;;;;;;4.33;4.33;;;;;28.89;50.59;100237.72;5052500;28;45518;-75
2022/09/14 09:29:40;;;;;;;;;5.33;4.67;;;;;28.92;50.05;100241.91;5047604;28;45395;-77
2022/09/14 09:32:22;;;;;;;;;4.00;4.00;;;;;28.93;49.90;100249.88;5043840;28;46492;-75
2022/09/14 09:34:47;;;;;;;;;4.33;4.33;;;;;28.95;50.28;100243.34;5050819;28;45517;-76
2022/09/14 09:37:19;;;;;;;;;5.67;4.00;;;;;28.96;50.46;100240.41;5052227;28;45375;-76
2022/09/14 09:39:45;;;;;;;;;8.00;6.33;;;;;28.96;50.15;100234.94;5048681;28;45626;-75
2022/09/14 09:42:20;;;;;;;;;5.33;5.00;;;;;28.98;50.42;100243.75;5034179;28;46374;-76
2022/09/14 09:44:59;;;;;;;;;4.00;4.00;;;;;29.01;49.61;100240.59;5038352;28;45395;-76
2022/09/14 09:47:37;;;;;;;;;4.67;3.00;;;;;29.03;49.69;100235.75;5035119;28;45525;-75
2022/09/14 09:50:14;;;;;;;;;4.00;4.00;;;;;29.04;49.88;100233.84;5032801;28;45446;-74
2022/09/14 09:52:53;;;;;;;;;4.33;4.33;;;;;29.06;49.89;100231.75;5033495;28;46246;-75
2022/09/14 09:55:25;;;;;;;;;4.67;4.67;;;;;29.08;50.01;100235.09;5043932;28;45494;-75
2022/09/14 09:57:52;;;;;;;;;5.67;5.67;;;;;29.09;49.84;100217.63;5040062;28;45582;-76
2022/09/14 10:00:27;;;;;;;;;4.00;4.00;;;;;29.11;49.81;100225.63;5040169;28;45508;-74
2022/09/14 10:02:53;;;;;;;;;4.00;4.00;;;;;29.14;50.13;100226.00;5043115;28;46419;-75
2022/09/14 10:05:24;;;;;;;;;5.00;5.00;;;;;29.17;49.85;100211.06;5031950;28;45841;-75
2022/09/14 10:07:54;;;;;;;;;4.33;4.33;;;;;29.18;49.63;100212.78;5042711;28;45998;-75
2022/09/14 10:10:38;;;;;;;;;4.67;4.00;;;;;29.19;49.46;100204.34;5052441;28;45535;-75
2022/09/14 10:13:05;;;;;;;;;5.67;5.00;;;;;29.23;49.61;100203.91;5046646;28;46180;-76
2022/09/14 10:15:32;;;;;;;;;5.00;4.00;;;;;29.25;49.69;100205.34;5036436;28;45384;-76
2022/09/14 10:18:07;;;;;;;;;8.00;8.00;;;;;29.27;48.51;100199.69;5043657;28;45544;-75
2022/09/14 10:20:35;;;;;;;;;5.33;5.33;;;;;29.27;48.88;100203.25;5055154;28;45640;-75
2022/09/14 10:23:21;;;;;;;;;6.00;6.00;;;;;29.23;48.31;100191.09;5035621;27;46425;-75
2022/09/14 10:25:49;;;;;;;;;7.00;7.00;;;;;29.21;48.73;100190.44;5044800;28;45581;-75
2022/09/14 10:28:21;;;;;;;;;5.00;5.00;;;;;29.21;48.45;100187.72;5048175;28;45699;-76
2022/09/14 10:30:56;;;;;;;;;6.33;6.33;;;;;29.18;48.84;100180.81;5051320;28;45479;-74
2022/09/14 10:33:22;;;;;;;;;6.33;6.33;;;;;29.19;48.95;100170.72;5051215;28;46353;-74
2022/09/14 10:35:59;;;;;;;;;7.00;7.00;;;;;29.19;48.61;100170.72;5040151;28;45328;-74
2022/09/14 10:38:32;;;;;;;;;6.00;6.00;;;;;29.18;48.90;100169.88;5042082;28;45459;-74
2022/09/14 10:41:24;;;;;;;;;5.67;5.00;;;;;29.19;48.86;100163.34;5053294;28;45527;-80
2022/09/14 10:44:04;;;;;;;;;9.00;7.00;;;;;29.23;48.30;100163.75;5047110;28;46253;-77
2022/09/14 10:46:47;;;;;;;;;6.33;6.33;;;;;29.28;47.46;100163.94;5037299;28;45610;-77
2022/09/14 10:49:38;;;;;;;;;7.33;5.67;;;;;29.35;47.47;100163.88;5046355;28;45742;-77
2022/09/14 10:52:12;;;;;;;;;7.33;7.33;;;;;29.41;47.26;100163.00;5046276;28;45447;-76
2022/09/14 10:55:18;;;;;;;;;5.67;5.67;;;;;29.43;46.72;100157.31;5039176;28;46500;-77
2022/09/14 10:58:15;;;;;;;;;8.00;6.00;;;;;29.47;46.95;100161.28;5042904;28;45426;-77
2022/09/14 11:01:16;;;;;;;;;7.33;7.33;;;;;29.49;46.70;100167.34;5045629;28;45545;-77
2022/09/14 11:04:07;;;;;;;;;9.00;8.33;;;;;29.49;46.35;100164.59;5046859;28;45626;-77
2022/09/14 11:06:58;;;;;;;;;8.67;8.00;;;;;29.51;46.76;100156.22;5040209;28;45530;-77
2022/09/14 11:09:39;;;;;;;;;7.67;6.00;;;;;29.51;46.97;100151.56;5039815;28;47072;-77
2022/09/14 11:12:25;;;;;;;;;5.00;5.00;;;;;29.51;46.47;100159.78;5041078;28;45665;-77
2022/09/14 11:15:07;;;;;;;;;9.00;6.33;;;;;29.52;46.66;100157.88;5035751;28;45710;-76
2022/09/14 11:17:58;;;;;;;;;7.00;7.00;;;;;29.50;46.67;100151.78;5038430;28;45502;-76
2022/09/14 11:20:33;;;;;;;;;7.00;6.33;;;;;29.48;46.19;100146.53;5040300;28;45490;-75
2022/09/14 11:23:08;;;;;;;;;9.00;9.00;;;;;29.46;46.49;100151.38;5035083;28;46366;-77
2022/09/14 11:26:09;;;;;;;;;6.67;6.33;;;;;29.48;46.81;100148.41;5036984;28;45484;-76
2022/09/14 11:28:43;;;;;;;;;7.33;7.33;;;;;29.51;46.46;100137.91;5043069;28;45627;-76
2022/09/14 11:31:18;;;;;;;;;6.33;6.33;;;;;29.56;46.41;100140.81;5035710;28;45493;-75
2022/09/14 11:33:57;;;;;;;;;8.67;8.67;;;;;29.60;46.68;100141.19;5050864;28;45854;-76
2022/09/14 11:36:33;;;;;;;;;12.00;8.00;;;;;29.61;46.67;100142.03;5052393;28;45546;-75
2022/09/14 11:39:03;;;;;;;;;6.00;5.00;;;;;29.58;46.42;100144.16;5055520;28;46238;-75
2022/09/14 11:41:40;;;;;;;;;5.33;4.33;;;;;29.58;46.77;100144.16;5049053;28;45436;-75
2022/09/14 11:44:23;;;;;;;;;5.67;5.67;;;;;29.56;47.16;100148.19;5051413;28;45693;-75
2022/09/14 11:46:56;;;;;;;;;7.00;6.67;;;;;29.55;46.72;100143.78;5048375;28;45551;-76
2022/09/14 11:49:48;;;;;;;;;7.00;6.33;;;;;29.58;47.09;100146.03;5050229;28;45546;-77
2022/09/14 11:52:22;;;;;;;;;4.67;4.67;;;;;29.60;47.08;100149.41;4978450;28;45398;-76
2022/09/14 11:54:49;;;;;;;;;7.00;6.00;;;;;29.61;46.72;100144.75;5008381;28;45801;-76
2022/09/14 11:57:26;;;;;;;;;6.67;5.33;;;;;29.62;46.94;100143.72;4997046;28;45706;-79
2022/09/14 11:59:55;;;;;;;;;5.67;5.33;;;;;29.65;47.25;100140.50;5002646;28;46245;-80
2022/09/14 12:02:29;;;;;;;;;6.33;6.00;;;;;29.66;47.10;100136.72;5010722;28;45369;-81
2022/09/14 12:07:46;;;;;;;;;3.33;3.33;;;;;29.69;47.55;100133.53;4990265;28;45923;-80
2022/09/14 12:10:14;;;;;;;;;6.00;6.00;;;;;29.70;47.51;100119.66;4990975;28;46229;-80
2022/09/14 12:12:41;;;;;;;;;5.00;5.00;;;;;29.72;47.29;100122.16;4990003;28;45584;-80
2022/09/14 12:15:25;;;;;;;;;4.67;4.67;;;;;29.75;47.86;100123.59;4990943;28;45445;-77
2022/09/14 12:18:12;;;;;;;;;5.33;5.33;;;;;29.76;47.77;100119.81;4991838;28;45417;-79
2022/09/14 12:20:59;;;;;;;;;5.00;5.00;;;;;29.79;47.73;100108.44;4984537;28;46116;-78
2022/09/14 12:23:41;;;;;;;;;5.67;5.67;;;;;29.83;48.14;100105.00;4987778;28;45539;-78
2022/09/14 12:26:09;;;;;;;;;7.33;6.00;;;;;29.87;47.72;100110.03;4991538;28;45454;-80
2022/09/14 12:28:37;;;;;;;;;5.67;5.00;;;;;29.67;47.07;100109.16;5006284;28;45519;-78
2022/09/14 12:31:03;;;;;;;;;8.33;8.00;;;;;29.44;47.19;100104.31;5054156;28;48136;-79
2022/09/14 12:33:31;;;;;;;;;9.00;9.00;;;;;29.24;47.41;100107.19;5051545;28;46482;-79
2022/09/14 12:35:58;;;;;;;;;7.33;7.00;;;;;29.08;47.35;100103.13;5054154;28;45531;-78
2022/09/14 12:38:30;;;;;;;;;6.50;6.00;;;;;28.96;47.71;100112.03;5052463;28;45440;-79
2022/09/14 12:41:21;;;;;;;;;6.67;6.00;;;;;28.84;48.02;100103.69;5045145;28;45458;-77
2022/09/14 12:43:50;;;;;;;;;5.33;5.33;;;;;28.70;47.61;100096.63;5046005;28;46211;-78
2022/09/14 12:46:18;;;;;;;;;6.00;6.00;;;;;28.52;47.74;100101.75;5046267;28;45503;-78
2022/09/14 12:48:43;;;;;;;;;7.00;6.00;;;;;28.37;47.97;100098.47;5047476;28;45747;-77
2022/09/14 12:51:20;;;;;;;;;5.00;5.00;;;;;28.25;48.39;100090.97;5052672;28;45476;-76
2022/09/14 12:54:00;;;;;;;;;5.00;5.00;;;;;28.15;48.54;100094.13;5037645;28;45396;-76
2022/09/14 12:56:56;;;;;;;;;5.00;5.00;;;;;28.10;48.42;100087.63;5044817;28;45369;-76
2022/09/14 12:59:27;;;;;;;;;5.00;5.00;;;;;28.06;48.90;100081.78;5047767;28;45365;-76
2022/09/14 13:02:08;;;;;;;;;6.33;5.00;;;;;28.01;48.10;100068.81;5045528;28;45592;-77
2022/09/14 13:04:36;;;;;;;;;2.67;2.67;;;;;27.96;48.47;100065.84;5048684;27;45884;-76
2022/09/14 13:07:12;;;;;;;;;5.00;5.00;;;;;27.93;48.30;100076.34;5042157;28;45666;-76
2022/09/14 13:09:55;;;;;;;;;5.33;5.00;;;;;27.92;48.47;100074.69;5037146;28;45494;-76
2022/09/14 13:12:30;;;;;;;;;3.00;3.00;;;;;27.93;48.21;100079.09;5048292;28;46484;-75
2022/09/14 13:14:59;;;;;;;;;6.00;4.00;;;;;27.93;48.78;100077.22;5040226;28;45765;-75
2022/09/14 13:17:25;;;;;;;;;5.00;5.00;;;;;27.94;48.20;100078.88;5043371;28;45416;-76
2022/09/14 13:19:59;;;;;;;;;4.67;3.67;;;;;27.91;48.73;100073.03;5033325;28;45548;-75
2022/09/14 13:22:28;;;;;;;;;3.67;3.67;;;;;27.90;48.76;100074.91;5039464;28;47469;-75
2022/09/14 13:24:55;;;;;;;;;6.00;4.00;;;;;27.89;48.76;100078.69;5046383;28;46352;-74
2022/09/14 13:27:37;;;;;;;;;4.33;4.00;;;;;27.87;48.95;100069.88;5042556;28;45516;-75
2022/09/14 13:30:17;;;;;;;;;4.00;4.00;;;;;27.90;48.67;100068.63;5044541;28;45370;-74
2022/09/14 13:32:46;;;;;;;;;4.00;4.00;;;;;27.93;49.15;100069.03;5041021;28;47600;-75
2022/09/14 13:35:18;;;;;;;;;5.00;5.00;;;;;27.96;48.71;100073.22;5044469;28;45345;-77
2022/09/14 13:37:44;;;;;;;;;5.67;4.67;;;;;27.95;48.96;100069.63;5039410;28;45433;-77
2022/09/14 13:40:11;;;;;;;;;3.33;3.33;;;;;27.93;49.58;100076.34;5046478;28;45921;-77
2022/09/14 13:42:38;;;;;;;;;5.00;5.00;;;;;27.95;49.81;100083.28;5048512;28;46269;-78
2022/09/14 13:45:05;;;;;;;;;3.00;3.00;;;;;27.98;49.66;100076.56;5054271;28;45505;-77
2022/09/14 13:47:30;;;;;;;;;4.00;2.67;;;;;28.01;49.90;100089.78;5052624;28;45520;-78
2022/09/14 13:49:57;;;;;;;;;4.33;4.00;;;;;28.04;49.91;100080.31;5035457;28;47541;-79
2022/09/14 13:52:22;;;;;;;;;5.67;4.00;;;;;28.05;49.43;100079.25;5043202;28;47158;-77
2022/09/14 13:54:53;;;;;;;;;4.33;4.00;;;;;28.02;50.27;100077.81;5041480;28;46058;-76
2022/09/14 13:57:21;;;;;;;;;3.33;3.33;;;;;27.99;50.42;100089.97;5037126;28;45475;-77
2022/09/14 14:00:08;;;;;;;;;4.67;4.67;;;;;27.98;50.49;100084.72;5039089;28;45571;-77
2022/09/14 14:02:35;;;;;;;;;3.00;3.00;;;;;27.96;50.43;100081.41;5044265;28;47207;-78
2022/09/14 14:05:02;;;;;;;;;5.33;3.67;;;;;27.98;50.10;100084.72;5037941;28;45561;-78
2022/09/14 14:07:33;;;;;;;;;3.00;3.00;;;;;28.03;50.24;100074.00;5039079;28;45624;-78
2022/09/14 14:10:00;;;;;;;;;3.33;3.33;;;;;28.07;50.15;100088.09;5042701;28;46158;-76
2022/09/14 14:12:27;;;;;;;;;3.00;3.00;;;;;28.09;50.06;100091.41;5035346;28;46251;-78
2022/09/14 14:14:58;;;;;;;;;3.00;3.00;;;;;28.09;50.11;100091.41;5039869;28;45552;-76
2022/09/14 14:17:32;;;;;;;;;2.00;2.00;;;;;28.04;48.88;100089.34;5047199;28;46947;-76
2022/09/14 14:20:31;;;;;;;;;3.00;3.00;;;;;28.01;49.36;100081.59;5050848;28;45387;-76
2022/09/14 14:23:12;;;;;;;;;2.67;2.67;;;;;27.95;49.33;100083.28;5040301;28;45459;-76
2022/09/14 14:25:46;;;;;;;;;5.00;3.00;;;;;27.91;49.58;100076.56;5044707;28;45513;-75
2022/09/14 14:28:25;;;;;;;;;4.00;4.00;;;;;27.90;49.47;100079.53;5041986;28;45808;-75
2022/09/14 14:30:52;;;;;;;;;2.00;2.00;;;;;27.85;50.09;100078.28;5047563;28;45514;-75
2022/09/14 14:33:18;;;;;;;;;4.00;4.00;;;;;27.88;50.03;100085.19;5044701;28;45948;-76
2022/09/14 14:35:45;;;;;;;;;3.67;2.67;;;;;27.90;49.57;100088.53;5043789;28;45283;-76
2022/09/14 14:38:10;;;;;;;;;4.33;4.33;;;;;27.93;49.46;100088.13;5045090;28;45466;-78
2022/09/14 14:40:36;;;;;;;;;4.67;4.67;;;;;27.93;49.35;100079.94;5044341;28;47233;-76
2022/09/14 14:43:03;;;;;;;;;3.00;3.00;;;;;27.92;48.10;100081.00;5046871;28;45511;-77
2022/09/14 14:45:30;;;;;;;;;4.67;3.00;;;;;27.91;47.78;100075.75;5046283;28;45847;-76
2022/09/14 14:47:57;;;;;;;;;3.67;3.67;;;;;27.89;48.04;100056.88;5048072;28;45492;-75
2022/09/14 14:50:28;;;;;;;;;1.67;1.67;;;;;27.86;48.07;100065.47;5031877;28;46268;-73
2022/09/14 14:52:54;;;;;;;;;4.00;4.00;;;;;27.80;48.33;100066.34;5025987;28;47145;-73
2022/09/14 14:55:21;;;;;;;;;4.00;2.33;;;;;27.81;48.74;100068.00;5044996;28;45735;-74
2022/09/14 14:57:47;;;;;;;;;2.00;2.00;;;;;27.80;48.44;100077.25;5039930;28;45463;-75
2022/09/14 15:00:16;;;;;;;;;6.00;2.67;;;;;27.82;48.40;100077.84;5041288;28;45360;-73
2022/09/14 15:02:42;;;;;;;;;2.33;2.00;;;;;27.81;48.60;100092.53;5045619;28;45459;-77
2022/09/14 15:05:07;;;;;;;;;4.67;4.67;;;;;27.81;49.07;100071.56;5045385;28;45506;-76
2022/09/14 15:07:33;;;;;;;;;2.00;2.00;;;;;27.85;49.19;100072.84;5043923;28;45478;-75
2022/09/14 15:09:59;;;;;;;;;3.33;3.33;;;;;27.86;49.07;100070.91;5042249;28;45576;-75
2022/09/14 15:12:24;;;;;;;;;1.33;1.00;;;;;27.87;49.34;100070.72;5041989;28;45761;-77
2022/09/14 15:14:49;;;;;;;;;2.00;2.00;;;;;27.86;49.07;100074.50;5044494;28;45879;-78
2022/09/14 15:17:16;;;;;;;;;2.00;2.00;;;;;27.86;49.06;100074.50;5047479;28;45959;-78
2022/09/14 15:19:41;;;;;;;;;4.00;2.00;;;;;27.87;49.39;100073.44;5039880;28;45506;-75
2022/09/14 15:22:09;;;;;;;;;2.00;2.00;;;;;27.87;49.21;100069.88;5037706;28;45396;-76
2022/09/14 15:24:34;;;;;;;;;2.00;2.00;;;;;27.85;49.54;100075.56;5035524;28;45531;-76
2022/09/14 15:27:00;;;;;;;;;2.00;2.00;;;;;27.86;49.54;100066.31;5036036;28;45649;-77
2022/09/14 15:29:25;;;;;;;;;3.00;3.00;;;;;27.90;49.50;100072.19;5046184;28;45467;-77
2022/09/14 15:31:51;;;;;;;;;2.00;2.00;;;;;27.94;49.47;100067.97;5042064;28;45513;-77
2022/09/14 15:34:16;;;;;;;;;3.00;3.00;;;;;27.93;49.93;100076.34;5043499;28;45367;-76
2022/09/14 15:36:51;;;;;;;;;2.67;2.67;;;;;27.92;49.40;100072.81;5052898;28;45514;-76
2022/09/14 15:39:19;;;;;;;;;2.00;2.00;;;;;27.92;50.34;100072.81;5053744;28;45542;-75
2022/09/14 15:41:45;;;;;;;;;2.33;2.33;;;;;27.90;49.62;100071.34;5043180;28;45482;-76
2022/09/14 15:44:10;;;;;;;;;1.33;1.33;;;;;27.88;50.49;100068.84;5034792;28;45448;-77
2022/09/14 15:46:37;;;;;;;;;1.67;1.00;;;;;27.87;49.87;100067.13;5043196;28;45468;-77
2022/09/14 15:49:07;;;;;;;;;1.00;1.00;;;;;27.88;50.30;100071.56;5038881;28;45334;-77
2022/09/14 15:51:32;;;;;;;;;3.00;3.00;;;;;27.90;50.44;100065.91;5049907;28;46258;-76
2022/09/14 15:53:59;;;;;;;;;2.33;2.33;;;;;27.96;50.58;100075.94;5035327;28;46108;-75
2022/09/14 15:56:24;;;;;;;;;1.00;1.00;;;;;28.00;50.58;100074.47;5038077;28;45592;-75
2022/09/14 15:58:49;;;;;;;;;2.00;2.00;;;;;28.02;49.98;100078.66;5047578;28;46822;-76
2022/09/14 16:01:17;;;;;;;;;1.00;1.00;;;;;28.04;49.85;100086.63;5042487;28;46357;-76
2022/09/14 16:03:43;;;;;;;;;1.67;1.67;;;;;28.02;50.70;100075.06;5035405;28;45534;-76
2022/09/14 16:06:10;;;;;;;;;2.33;1.00;;;;;28.02;50.19;100073.19;5041383;28;45492;-76
2022/09/14 16:08:36;;;;;;;;;3.00;1.67;;;;;28.03;50.38;100074.00;5043983;28;45585;-78
2022/09/14 16:11:03;;;;;;;;;3.00;1.33;;;;;28.02;48.65;100075.94;5048942;28;46919;-76
2022/09/14 16:13:29;;;;;;;;;1.00;1.00;;;;;27.98;47.87;100073.81;5039226;28;45756;-75
2022/09/14 16:16:04;;;;;;;;;0.00;0.00;;;;;27.94;47.62;100076.16;5050438;28;45434;-76
2022/09/14 16:18:30;;;;;;;;;2.00;2.00;;;;;27.90;47.38;100069.44;5038047;28;45694;-77
2022/09/14 16:21:01;;;;;;;;;1.67;1.67;;;;;27.87;47.28;100076.16;5038068;28;45533;-75
2022/09/14 16:23:27;;;;;;;;;1.00;1.00;;;;;27.84;46.60;100071.13;5050975;28;45495;-77
2022/09/14 16:25:52;;;;;;;;;0.33;0.33;;;;;27.83;46.83;100082.28;5042281;28;45458;-76
2022/09/14 16:28:18;;;;;;;;;1.00;1.00;;;;;27.80;46.15;100079.97;5042465;28;45701;-77
2022/09/14 16:30:44;;;;;;;;;0.67;0.67;;;;;27.76;46.17;100090.47;5043904;28;45374;-76
2022/09/14 16:33:09;;;;;;;;;1.00;1.00;;;;;27.75;46.75;100086.06;5047754;28;45387;-76
2022/09/14 16:35:35;;;;;;;;;2.00;2.00;;;;;27.73;46.11;100097.19;5036133;28;46629;-77
2022/09/14 16:38:00;;;;;;;;;2.00;1.00;;;;;27.71;45.86;100098.44;5054177;28;48561;-76
2022/09/14 16:40:25;;;;;;;;;3.00;1.00;;;;;27.67;45.79;100102.66;5046998;28;45396;-77
2022/09/14 16:42:50;;;;;;;;;2.33;2.00;;;;;27.61;45.74;100110.63;5036048;28;47496;-77
2022/09/14 16:45:16;;;;;;;;;1.00;1.00;;;;;27.60;45.65;100110.84;5037767;28;45322;-77
2022/09/14 16:47:41;;;;;;;;;5.67;2.33;;;;;27.59;45.99;100109.94;5041821;28;45455;-77
2022/09/14 16:50:07;;;;;;;;;3.00;3.00;;;;;27.57;45.35;100117.50;5051069;28;46103;-77
2022/09/14 16:52:32;;;;;;;;;2.00;2.00;;;;;27.57;46.11;100125.69;5048384;28;46910;-75
2022/09/14 16:54:57;;;;;;;;;2.33;2.33;;;;;27.57;46.09;100124.84;5049581;28;45397;-76
2022/09/14 16:57:25;;;;;;;;;2.00;1.00;;;;;27.56;45.33;100125.91;5036685;28;48584;-77
2022/09/14 16:59:50;;;;;;;;;1.00;1.00;;;;;27.55;45.36;100126.94;5034272;28;45490;-76
2022/09/14 17:02:16;;;;;;;;;2.00;2.00;;;;;27.55;45.48;100127.78;5040305;28;45401;-76
2022/09/14 17:04:41;;;;;;;;;1.00;1.00;;;;;27.54;46.07;100126.09;5040433;28;45757;-75
2022/09/14 17:07:07;;;;;;;;;0.00;0.00;;;;;27.54;46.09;100128.81;5043039;28;47460;-76